Time;durP1;ratioP1;P1;durP2;ratioP2;P2;SDS_P1;SDS_P2;PMS_P1;PMS_P2;Temp;Humidity;BMP_temperature;BMP_pressure;BME280_temperature;BME280_humidity;BME280_pressure;Samples;Min_cycle;Max_cycle;Signal;HPM_P1;HPM_P2
2022/04/21 00:00:28;;;;;;;;;;;10.80;93.60;;;;;;5018364;28;19940;-89
2022/04/21 00:02:55;;;;;;;;;;;10.80;93.70;;;;;;5018136;28;19930;-88
2022/04/21 00:05:22;;;;;;;;;;;10.80;93.50;;;;;;5017703;28;19926;-89
2022/04/21 00:07:49;;;;;;;;;;;10.60;93.90;;;;;;5021060;28;19972;-86
2022/04/21 00:10:16;;;;;;;;;;;10.70;94.00;;;;;;5043376;28;20008;-86
2022/04/21 00:12:43;;;;;;;;;;;10.80;93.90;;;;;;5043973;28;19925;-85
2022/04/21 00:15:12;;;;;;;;;;;10.60;94.10;;;;;;5044308;28;20338;-86
2022/04/21 00:17:39;;;;;;;;;;;10.60;93.60;;;;;;5036228;28;20004;-89
2022/04/21 00:20:06;;;;;;;;;;;10.50;93.90;;;;;;5036306;28;20261;-89
2022/04/21 00:25:18;;;;;;;;;;;10.60;94.00;;;;;;5035872;28;19947;-89
2022/04/21 00:27:46;;;;;;;;;;;11.70;94.00;;;;;;5036257;28;19929;-89
2022/04/21 00:30:16;;;;;;;;;;;10.50;93.70;;;;;;5036305;28;19925;-88
2022/04/21 00:32:43;;;;;;;;;;;10.60;93.60;;;;;;5036680;28;19966;-88
2022/04/21 00:35:11;;;;;;;;;;;10.50;93.50;;;;;;5036051;28;19960;-88
2022/04/21 00:37:44;;;;;;;;;;;10.40;94.00;;;;;;5035946;28;19975;-88
2022/04/21 00:40:11;;;;;;;;;;;10.20;93.90;;;;;;5035674;28;19953;-87
2022/04/21 00:42:38;;;;;;;;;;;10.20;94.30;;;;;;5035537;28;19929;-88
2022/04/21 00:45:05;;;;;;;;;;;10.10;94.50;;;;;;5036042;28;19951;-88
2022/04/21 00:47:33;;;;;;;;;;;10.20;94.50;;;;;;5036177;28;19925;-89
2022/04/21 00:50:00;;;;;;;;;;;10.30;94.40;;;;;;5036565;28;20383;-87
2022/04/21 00:52:26;;;;;;;;;;;10.40;94.30;;;;;;5036760;28;19932;-88
2022/04/21 00:54:53;;;;;;;;;;;10.30;94.40;;;;;;5036991;28;19929;-86
2022/04/21 00:57:20;;;;;;;;;;;10.30;94.60;;;;;;5036572;28;19925;-88
2022/04/21 00:59:47;;;;;;;;;;;10.30;94.60;;;;;;5036671;28;20367;-89
2022/04/21 01:05:00;;;;;;;;;;;10.20;94.70;;;;;;5036493;28;20474;-88
2022/04/21 01:07:27;;;;;;;;;;;10.20;94.70;;;;;;5048586;28;19924;-85
2022/04/21 01:09:55;;;;;;;;;;;10.10;95.20;;;;;;5057296;28;19983;-89
2022/04/21 01:12:23;;;;;;;;;;;10.00;95.00;;;;;;5060199;28;19925;-90
2022/04/21 01:14:50;;;;;;;;;;;9.90;95.60;;;;;;5060182;28;19924;-88
2022/04/21 01:17:17;;;;;;;;;;;9.70;95.70;;;;;;5061702;28;19936;-85
2022/04/21 01:19:43;;;;;;;;;;;9.90;96.30;;;;;;5065437;28;19925;-85
2022/04/21 01:22:12;;;;;;;;;;;10.00;95.70;;;;;;5065736;28;19948;-88
2022/04/21 01:24:38;;;;;;;;;;;10.20;95.70;;;;;;5059700;28;19925;-90
2022/04/21 01:27:05;;;;;;;;;;;9.90;96.50;;;;;;5059803;28;20037;-87
2022/04/21 01:29:32;;;;;;;;;;;9.80;96.20;;;;;;5034341;28;19925;-89
2022/04/21 01:31:59;;;;;;;;;;;9.80;96.50;;;;;;5040191;28;20432;-89
2022/04/21 01:34:26;;;;;;;;;;;9.80;96.50;;;;;;5039256;28;19975;-90
2022/04/21 01:42:23;;;;;;;;;;;9.90;96.00;;;;;;5039418;28;19932;-90
2022/04/21 01:44:49;;;;;;;;;;;9.70;96.50;;;;;;5038970;28;19979;-90
2022/04/21 01:47:16;;;;;;;;;;;9.60;96.60;;;;;;5038794;28;19964;-90
2022/04/21 01:49:43;;;;;;;;;;;9.60;96.90;;;;;;5039288;28;19933;-88
2022/04/21 01:52:10;;;;;;;;;;;9.00;96.70;;;;;;5038989;28;20342;-90
2022/04/21 01:54:38;;;;;;;;;;;9.40;97.00;;;;;;5039219;28;19925;-88
2022/04/21 01:57:04;;;;;;;;;;;9.50;97.20;;;;;;5039307;28;19925;-87
2022/04/21 01:59:32;;;;;;;;;;;9.80;96.70;;;;;;5039440;28;20260;-89
2022/04/21 02:01:58;;;;;;;;;;;9.80;96.50;;;;;;5039542;28;19925;-89
2022/04/21 02:04:26;;;;;;;;;;;9.70;96.80;;;;;;5039940;28;19983;-88
2022/04/21 02:06:53;;;;;;;;;;;9.80;96.70;;;;;;5043404;28;19925;-88
2022/04/21 02:09:19;;;;;;;;;;;9.80;96.80;;;;;;5045056;28;19925;-86
2022/04/21 02:11:48;;;;;;;;;;;9.80;96.90;;;;;;5044471;28;19932;-89
2022/04/21 02:14:16;;;;;;;;;;;9.70;96.80;;;;;;5042753;28;19965;-89
2022/04/21 02:16:42;;;;;;;;;;;9.60;97.00;;;;;;5039097;28;19925;-88
2022/04/21 02:19:09;;;;;;;;;;;9.50;97.30;;;;;;5039375;28;19925;-88
2022/04/21 02:21:36;;;;;;;;;;;9.40;97.30;;;;;;5038645;28;19983;-87
2022/04/21 02:24:03;;;;;;;;;;;9.40;97.40;;;;;;5038670;28;19925;-88
2022/04/21 02:26:30;;;;;;;;;;;9.40;97.80;;;;;;5037551;28;19937;-88
2022/04/21 02:28:58;;;;;;;;;;;9.40;98.20;;;;;;5038511;28;19925;-88
2022/04/21 02:31:25;;;;;;;;;;;9.40;98.10;;;;;;5037967;28;19971;-87
2022/04/21 02:33:51;;;;;;;;;;;9.20;98.50;;;;;;5037595;28;20294;-87
2022/04/21 02:36:18;;;;;;;;;;;9.90;98.70;;;;;;5037293;28;19925;-85
2022/04/21 02:38:45;;;;;;;;;;;9.20;98.40;;;;;;5037595;28;19933;-88
2022/04/21 02:41:12;;;;;;;;;;;9.20;98.40;;;;;;5037493;28;20337;-89
2022/04/21 02:43:39;;;;;;;;;;;9.20;98.90;;;;;;5038321;28;19925;-88
2022/04/21 02:46:09;;;;;;;;;;;9.30;98.80;;;;;;5038906;28;19929;-86
2022/04/21 02:48:36;;;;;;;;;;;9.10;98.00;;;;;;5038220;28;19991;-89
2022/04/21 02:51:03;;;;;;;;;;;9.20;98.70;;;;;;5038150;28;19925;-89
2022/04/21 02:58:55;;;;;;;;;;;8.80;99.50;;;;;;5038571;28;19940;-86
2022/04/21 03:01:24;;;;;;;;;;;8.90;99.90;;;;;;5039009;28;19925;-89
2022/04/21 03:03:54;;;;;;;;;;;9.50;99.90;;;;;;5039163;28;19925;-89
2022/04/21 03:06:21;;;;;;;;;;;8.90;99.90;;;;;;5037008;28;19929;-89
2022/04/21 03:08:48;;;;;;;;;;;8.90;99.90;;;;;;5037289;28;19961;-91
2022/04/21 03:11:14;;;;;;;;;;;8.70;99.90;;;;;;5037248;28;20370;-89
2022/04/21 03:13:41;;;;;;;;;;;8.70;99.90;;;;;;5037644;28;19929;-89
2022/04/21 03:16:08;;;;;;;;;;;8.60;99.90;;;;;;5037338;28;19979;-90
2022/04/21 03:18:36;;;;;;;;;;;8.50;99.90;;;;;;5037299;28;19971;-89
2022/04/21 03:26:31;;;;;;;;;;;8.80;99.90;;;;;;5037808;28;19971;-89
2022/04/21 03:28:58;;;;;;;;;;;8.90;99.90;;;;;;5037801;28;19979;-88
2022/04/21 03:31:25;;;;;;;;;;;8.70;99.90;;;;;;5037104;28;19987;-90
2022/04/21 03:33:53;;;;;;;;;;;8.80;99.90;;;;;;5035429;28;20313;-86
2022/04/21 03:36:21;;;;;;;;;;;8.60;99.90;;;;;;5036493;28;20369;-88
2022/04/21 03:38:47;;;;;;;;;;;8.50;99.90;;;;;;5036453;28;20333;-89
2022/04/21 03:41:14;;;;;;;;;;;7.00;99.90;;;;;;5036717;28;19925;-88
2022/04/21 03:43:41;;;;;;;;;;;8.40;99.90;;;;;;5036759;28;19925;-88
2022/04/21 03:46:08;;;;;;;;;;;6.00;99.90;;;;;;5037085;28;19925;-88
2022/04/21 03:48:35;;;;;;;;;;;8.30;99.90;;;;;;5036876;28;20551;-87
2022/04/21 03:51:03;;;;;;;;;;;8.30;99.90;;;;;;5037049;28;20047;-89
2022/04/21 03:53:31;;;;;;;;;;;8.50;99.90;;;;;;5036637;28;20370;-90
2022/04/21 03:55:57;;;;;;;;;;;8.30;99.90;;;;;;5036498;28;20371;-89
2022/04/21 03:58:24;;;;;;;;;;;8.30;99.90;;;;;;5036494;28;19925;-92
2022/04/21 04:00:51;;;;;;;;;;;8.30;99.90;;;;;;5036649;28;19925;-89
2022/04/21 04:03:18;;;;;;;;;;;8.30;99.90;;;;;;5037741;28;19925;-89
2022/04/21 04:05:44;;;;;;;;;;;8.40;99.90;;;;;;5040552;28;19925;-87
2022/04/21 04:10:59;;;;;;;;;;;8.40;99.90;;;;;;5045483;28;19936;-85
2022/04/21 04:13:26;;;;;;;;;;;8.50;99.90;;;;;;5044331;28;19925;-90
2022/04/21 04:15:54;;;;;;;;;;;8.40;99.90;;;;;;5037183;28;19925;-89
2022/04/21 04:18:21;;;;;;;;;;;8.40;99.90;;;;;;5036891;28;19975;-87
2022/04/21 04:20:48;;;;;;;;;;;8.30;99.90;;;;;;5038709;28;19926;-85
2022/04/21 04:23:17;;;;;;;;;;;8.30;99.90;;;;;;5041503;28;19948;-85
2022/04/21 04:25:44;;;;;;;;;;;8.20;99.90;;;;;;5038389;28;19987;-89
2022/04/21 04:28:10;;;;;;;;;;;8.30;99.90;;;;;;5036631;28;20333;-90
2022/04/21 04:30:38;;;;;;;;;;;8.30;99.90;;;;;;5036620;28;20329;-90
2022/04/21 04:33:05;;;;;;;;;;;8.60;99.90;;;;;;5036433;28;20342;-89
2022/04/21 04:35:32;;;;;;;;;;;8.50;99.90;;;;;;5035959;28;19927;-89
2022/04/21 04:37:59;;;;;;;;;;;8.50;99.90;;;;;;5035848;28;19960;-89
2022/04/21 04:40:27;;;;;;;;;;;8.60;99.90;;;;;;5036385;28;19929;-90
2022/04/21 04:42:53;;;;;;;;;;;8.60;99.90;;;;;;5036337;28;19932;-89
2022/04/21 04:48:05;;;;;;;;;;;8.50;99.90;;;;;;5035859;28;19971;-87
2022/04/21 04:50:31;;;;;;;;;;;8.70;99.90;;;;;;5036158;28;20338;-89
2022/04/21 04:52:59;;;;;;;;;;;8.40;99.90;;;;;;5036242;28;19925;-88
2022/04/21 04:55:30;;;;;;;;;;;8.30;99.90;;;;;;5037884;28;19929;-88
2022/04/21 04:57:57;;;;;;;;;;;7.80;99.90;;;;;;5036048;28;19929;-87
2022/04/21 05:00:27;;;;;;;;;;;8.40;99.90;;;;;;5035906;28;20326;-89
2022/04/21 05:02:54;;;;;;;;;;;8.30;99.90;;;;;;5035609;28;20378;-88
2022/04/21 05:05:21;;;;;;;;;;;8.20;99.90;;;;;;5035683;28;20279;-86
2022/04/21 05:07:48;;;;;;;;;;;8.10;99.90;;;;;;5034880;28;19925;-88
2022/04/21 05:10:18;;;;;;;;;;;8.10;99.90;;;;;;5035870;28;19925;-88
2022/04/21 05:12:47;;;;;;;;;;;8.00;99.90;;;;;;5036002;28;19948;-91
2022/04/21 05:15:14;;;;;;;;;;;8.10;99.90;;;;;;5035698;28;19925;-91
2022/04/21 05:17:41;;;;;;;;;;;8.20;99.90;;;;;;5036107;28;19925;-88
2022/04/21 05:20:08;;;;;;;;;;;8.20;99.90;;;;;;5035985;28;20283;-89
2022/04/21 05:22:37;;;;;;;;;;;8.40;99.90;;;;;;5036162;28;19925;-88
2022/04/21 05:25:05;;;;;;;;;;;8.40;99.90;;;;;;5036063;28;20371;-89
2022/04/21 05:27:32;;;;;;;;;;;8.80;99.90;;;;;;5036099;28;19929;-89
2022/04/21 05:32:46;;;;;;;;;;;8.90;99.90;;;;;;5036219;28;20014;-91
2022/04/21 05:35:15;;;;;;;;;;;9.10;99.90;;;;;;5036356;28;19925;-90
2022/04/21 05:37:42;;;;;;;;;;;9.00;99.90;;;;;;5036789;28;19931;-88
2022/04/21 05:40:09;;;;;;;;;;;9.00;99.90;;;;;;5036148;28;19995;-88
2022/04/21 05:42:36;;;;;;;;;;;8.70;99.90;;;;;;5036022;28;19925;-89
2022/04/21 05:45:05;;;;;;;;;;;9.60;99.90;;;;;;5035349;28;20319;-89
2022/04/21 05:47:33;;;;;;;;;;;9.80;99.90;;;;;;5035745;28;19976;-88
2022/04/21 05:50:00;;;;;;;;;;;10.00;99.90;;;;;;5035774;28;19995;-87
2022/04/21 05:52:29;;;;;;;;;;;10.30;99.90;;;;;;5035708;28;20276;-86
2022/04/21 05:54:56;;;;;;;;;;;10.90;99.90;;;;;;5035118;28;19926;-88
2022/04/21 05:57:23;;;;;;;;;;;11.00;99.90;;;;;;5036578;28;20437;-89
2022/04/21 05:59:50;;;;;;;;;;;11.10;99.90;;;;;;5038877;28;20356;-87
2022/04/21 06:02:18;;;;;;;;;;;11.40;99.90;;;;;;5039771;28;19929;-91
2022/04/21 06:04:45;;;;;;;;;;;11.30;99.90;;;;;;5038869;28;19929;-89
2022/04/21 06:07:12;;;;;;;;;;;11.70;99.90;;;;;;5045077;28;19978;-84
2022/04/21 06:09:39;;;;;;;;;;;11.60;99.90;;;;;;5047887;28;19929;-85
2022/04/21 06:12:06;;;;;;;;;;;11.80;99.90;;;;;;5048853;28;19929;-85
2022/04/21 06:14:34;;;;;;;;;;;12.00;99.90;;;;;;5045686;28;19929;-88
2022/04/21 06:17:01;;;;;;;;;;;12.50;99.90;;;;;;5040306;28;19925;-88
2022/04/21 06:19:29;;;;;;;;;;;12.70;99.90;;;;;;5038575;28;19970;-89
2022/04/21 06:21:56;;;;;;;;;;;13.10;99.60;;;;;;5038777;28;20446;-87
2022/04/21 06:24:25;;;;;;;;;;;13.20;99.30;;;;;;5040365;28;19926;-86
2022/04/21 06:26:52;;;;;;;;;;;13.20;99.30;;;;;;5039676;28;19971;-89
2022/04/21 06:29:19;;;;;;;;;;;13.20;98.80;;;;;;5039479;28;19925;-90
2022/04/21 06:31:46;;;;;;;;;;;13.30;98.90;;;;;;5039930;28;19925;-90
2022/04/21 06:34:12;;;;;;;;;;;13.00;97.90;;;;;;5038934;28;19925;-89
2022/04/21 06:36:43;;;;;;;;;;;13.10;98.30;;;;;;5038334;28;19952;-88
2022/04/21 06:39:10;;;;;;;;;;;12.50;98.70;;;;;;5038455;28;19925;-89
2022/04/21 06:41:37;;;;;;;;;;;12.50;99.00;;;;;;5039245;28;19929;-88
2022/04/21 06:49:32;;;;;;;;;;;11.90;99.60;;;;;;5041519;28;19939;-86
2022/04/21 06:52:01;;;;;;;;;;;11.80;99.60;;;;;;5041403;28;20055;-89
2022/04/21 06:54:27;;;;;;;;;;;11.30;99.70;;;;;;5041606;28;19932;-90
2022/04/21 06:56:54;;;;;;;;;;;11.60;99.90;;;;;;5038145;28;19925;-88
2022/04/21 06:59:24;;;;;;;;;;;11.60;99.90;;;;;;5038371;28;19971;-89
2022/04/21 07:01:50;;;;;;;;;;;11.70;99.90;;;;;;5026872;28;19965;-88
2022/04/21 07:04:17;;;;;;;;;;;11.30;99.90;;;;;;5029988;28;19929;-90
2022/04/21 07:06:44;;;;;;;;;;;11.30;99.90;;;;;;5016004;28;19925;-88
2022/04/21 07:09:12;;;;;;;;;;;11.20;99.90;;;;;;5022887;28;19933;-89
2022/04/21 07:11:39;;;;;;;;;;;11.50;99.90;;;;;;5028471;28;19996;-88
2022/04/21 07:14:07;;;;;;;;;;;11.40;99.90;;;;;;5026799;28;20007;-85
2022/04/21 07:16:34;;;;;;;;;;;11.40;99.90;;;;;;5006389;28;19926;-85
2022/04/21 07:19:01;;;;;;;;;;;10.10;99.50;;;;;;5030147;28;20345;-90
2022/04/21 07:21:29;;;;;;;;;;;11.50;99.90;;;;;;5037624;28;19925;-85
2022/04/21 07:23:55;;;;;;;;;;;11.60;99.90;;;;;;5040915;28;19947;-84
2022/04/21 07:26:28;;;;;;;;;;;11.70;99.80;;;;;;5040651;28;20331;-90
2022/04/21 07:28:57;;;;;;;;;;;11.90;99.60;;;;;;5038137;28;19972;-89
2022/04/21 07:31:25;;;;;;;;;;;12.00;98.80;;;;;;5033092;28;19926;-90
2022/04/21 07:33:52;;;;;;;;;;;12.00;99.70;;;;;;5031523;28;19944;-91
2022/04/21 07:36:19;;;;;;;;;;;11.90;98.80;;;;;;5017560;28;19948;-92
2022/04/21 07:38:46;;;;;;;;;;;12.60;99.30;;;;;;4998937;28;19951;-88
2022/04/21 07:41:13;;;;;;;;;;;12.10;98.60;;;;;;4992015;28;19925;-85
2022/04/21 07:43:44;;;;;;;;;;;12.30;97.80;;;;;;4989825;28;19925;-87
2022/04/21 07:46:11;;;;;;;;;;;12.50;97.20;;;;;;4989204;28;19951;-85
2022/04/21 07:51:22;;;;;;;;;;;12.20;96.80;;;;;;4990102;28;20013;-86
2022/04/21 07:53:49;;;;;;;;;;;12.60;97.20;;;;;;5010079;28;20023;-86
2022/04/21 07:56:17;;;;;;;;;;;13.20;98.30;;;;;;5022573;28;20424;-88
2022/04/21 08:04:37;;;;;;;;;;;12.70;95.90;;;;;;4996379;28;20380;-84
2022/04/21 08:07:05;;;;;;;;;;;12.80;95.60;;;;;;5031875;28;20012;-84
2022/04/21 08:09:32;;;;;;;;;;;12.80;95.80;;;;;;5031374;28;19925;-85
2022/04/21 08:12:02;;;;;;;;;;;12.70;97.10;;;;;;5028951;28;19944;-85
2022/04/21 08:14:29;;;;;;;;;;;15.50;97.40;;;;;;5010680;28;19925;-89
2022/04/21 08:16:56;;;;;;;;;;;13.50;96.40;;;;;;5033498;28;19929;-84
2022/04/21 08:19:23;;;;;;;;;;;14.00;96.30;;;;;;5013149;28;19999;-88
2022/04/21 08:21:52;;;;;;;;;;;13.50;96.10;;;;;;5011350;28;19925;-87
2022/04/21 08:32:41;;;;;;;;;;;13.60;94.20;;;;;;5028683;28;19936;-88
2022/04/21 08:35:09;;;;;;;;;;;13.70;94.20;;;;;;5023664;28;19932;-89
2022/04/21 08:37:40;;;;;;;;;;;13.70;93.90;;;;;;5036109;28;19986;-89
2022/04/21 08:40:08;;;;;;;;;;;14.10;93.10;;;;;;5032642;28;19979;-89
2022/04/21 08:42:38;;;;;;;;;;;13.80;92.50;;;;;;5032196;28;19933;-89
2022/04/21 08:45:06;;;;;;;;;;;13.70;93.10;;;;;;5030845;28;19926;-86
2022/04/21 08:47:33;;;;;;;;;;;13.00;93.20;;;;;;5035110;28;19958;-88
2022/04/21 08:50:04;;;;;;;;;;;13.80;93.60;;;;;;5028813;28;19953;-89
2022/04/21 08:52:31;;;;;;;;;;;13.80;93.10;;;;;;5033530;28;19937;-87
2022/04/21 08:55:00;;;;;;;;;;;13.90;94.00;;;;;;5020280;28;19960;-90
2022/04/21 08:57:29;;;;;;;;;;;14.00;93.30;;;;;;5026891;28;19974;-86
2022/04/21 08:59:56;;;;;;;;;;;14.00;93.30;;;;;;5027963;28;19929;-87
2022/04/21 09:02:33;;;;;;;;;;;14.00;93.20;;;;;;5022367;28;19929;-86
2022/04/21 09:05:00;;;;;;;;;;;14.10;92.50;;;;;;5024121;28;20321;-86
2022/04/21 09:07:26;;;;;;;;;;;14.20;92.60;;;;;;5019856;28;19935;-86
2022/04/21 09:10:02;;;;;;;;;;;14.20;92.80;;;;;;5023886;28;20387;-86
2022/04/21 09:12:30;;;;;;;;;;;14.50;92.40;;;;;;5020154;28;19933;-86
2022/04/21 09:14:57;;;;;;;;;;;14.60;92.30;;;;;;5022536;28;19940;-86
2022/04/21 09:17:24;;;;;;;;;;;14.40;92.20;;;;;;5013035;28;20032;-87
2022/04/21 09:19:57;;;;;;;;;;;14.40;92.50;;;;;;5022580;28;19966;-86
2022/04/21 09:22:26;;;;;;;;;;;15.00;92.40;;;;;;5021549;28;19965;-85
2022/04/21 09:24:54;;;;;;;;;;;14.60;92.40;;;;;;5010492;28;19925;-86
2022/04/21 09:27:22;;;;;;;;;;;14.60;91.90;;;;;;5016338;28;20296;-88
2022/04/21 09:29:49;;;;;;;;;;;14.60;91.80;;;;;;5026122;28;19979;-86
2022/04/21 09:32:17;;;;;;;;;;;14.70;91.40;;;;;;5030816;28;20119;-85
2022/04/21 09:34:48;;;;;;;;;;;14.70;91.90;;;;;;5033762;28;19983;-85
2022/04/21 09:37:18;;;;;;;;;;;14.70;91.70;;;;;;5034513;28;19940;-84
2022/04/21 09:39:50;;;;;;;;;;;14.80;91.10;;;;;;5033099;28;20390;-85
2022/04/21 09:42:24;;;;;;;;;;;14.40;91.10;;;;;;5024078;28;21139;-84
2022/04/21 09:47:36;;;;;;;;;;;14.90;91.20;;;;;;5019001;28;20054;-87
2022/04/21 09:50:11;;;;;;;;;;;15.10;91.10;;;;;;5021691;28;19924;-87
2022/04/21 09:52:38;;;;;;;;;;;14.80;90.70;;;;;;5024573;28;19933;-86
2022/04/21 09:55:20;;;;;;;;;;;15.20;91.10;;;;;;5029462;28;20342;-85
2022/04/21 09:57:50;;;;;;;;;;;15.40;90.50;;;;;;5021464;28;19991;-86
2022/04/21 10:00:20;;;;;;;;;;;15.40;90.20;;;;;;5024401;28;20030;-84
2022/04/21 10:02:48;;;;;;;;;;;15.40;90.80;;;;;;5026450;28;20367;-86
2022/04/21 10:05:16;;;;;;;;;;;15.40;90.40;;;;;;5029819;28;19940;-85
2022/04/21 10:07:44;;;;;;;;;;;15.40;90.40;;;;;;5018187;28;19943;-86
2022/04/21 10:10:11;;;;;;;;;;;15.50;90.80;;;;;;5030289;28;19932;-86
2022/04/21 10:12:38;;;;;;;;;;;15.60;90.60;;;;;;5028664;28;19933;-85
2022/04/21 10:15:08;;;;;;;;;;;14.40;90.30;;;;;;5027361;28;19925;-85
2022/04/21 10:17:35;;;;;;;;;;;15.90;90.50;;;;;;5026508;28;19967;-87
2022/04/21 10:20:02;;;;;;;;;;;15.70;92.20;;;;;;5016034;28;20845;-86
2022/04/21 10:22:42;;;;;;;;;;;15.90;90.70;;;;;;5021750;28;19939;-86
2022/04/21 10:25:10;;;;;;;;;;;15.00;90.20;;;;;;5020424;28;19969;-88
2022/04/21 10:27:39;;;;;;;;;;;16.20;90.20;;;;;;5014742;28;19941;-85
2022/04/21 10:30:19;;;;;;;;;;;16.00;89.50;;;;;;5023983;28;19925;-85
2022/04/21 10:32:50;;;;;;;;;;;15.90;90.00;;;;;;5022695;28;21258;-85
2022/04/21 10:35:18;;;;;;;;;;;16.90;90.40;;;;;;5023786;28;19996;-87
2022/04/21 10:37:46;;;;;;;;;;;16.80;90.10;;;;;;5032258;28;19932;-87
2022/04/21 10:40:14;;;;;;;;;;;16.10;91.40;;;;;;5020817;28;20019;-86
2022/04/21 10:42:57;;;;;;;;;;;17.30;91.10;;;;;;5021598;28;20505;-86
2022/04/21 10:45:26;;;;;;;;;;;17.20;89.40;;;;;;5016588;28;19993;-84
2022/04/21 10:48:08;;;;;;;;;;;16.40;88.80;;;;;;5020858;28;19933;-84
2022/04/21 10:50:36;;;;;;;;;;;16.90;89.10;;;;;;5022970;28;19933;-87
2022/04/21 10:58:53;;;;;;;;;;;16.70;90.20;;;;;;5023566;28;19959;-85
2022/04/21 11:01:31;;;;;;;;;;;16.60;89.70;;;;;;5018929;28;20359;-85
2022/04/21 11:04:11;;;;;;;;;;;16.80;89.90;;;;;;5021148;28;20010;-90
2022/04/21 11:06:40;;;;;;;;;;;17.00;88.80;;;;;;5020514;28;19925;-86
2022/04/21 11:09:07;;;;;;;;;;;17.60;89.60;;;;;;5016335;28;19925;-84
2022/04/21 11:11:44;;;;;;;;;;;17.10;89.10;;;;;;5015158;28;20821;-87
2022/04/21 11:14:11;;;;;;;;;;;17.20;88.30;;;;;;5017718;28;19968;-86
2022/04/21 11:16:49;;;;;;;;;;;19.50;90.50;;;;;;5016264;28;19936;-86
2022/04/21 11:19:34;;;;;;;;;;;17.20;88.40;;;;;;5021923;28;19926;-86
2022/04/21 11:22:02;;;;;;;;;;;17.20;88.70;;;;;;5018524;28;21511;-85
2022/04/21 11:24:49;;;;;;;;;;;17.10;88.70;;;;;;5018994;28;20156;-85
2022/04/21 11:27:15;;;;;;;;;;;17.10;89.30;;;;;;5022178;28;19957;-85
2022/04/21 11:29:42;;;;;;;;;;;16.80;88.40;;;;;;5023957;28;19964;-86
2022/04/21 11:32:15;;;;;;;;;;;17.30;89.40;;;;;;5022358;28;19933;-86
2022/04/21 11:34:44;;;;;;;;;;;17.10;89.00;;;;;;5026599;28;19933;-83
2022/04/21 11:37:14;;;;;;;;;;;17.30;89.90;;;;;;5027694;28;19937;-86
2022/04/21 11:39:41;;;;;;;;;;;16.10;87.70;;;;;;5030013;28;19933;-89
2022/04/21 11:42:09;;;;;;;;;;;17.20;89.90;;;;;;5033097;28;19925;-86
2022/04/21 11:44:37;;;;;;;;;;;17.00;89.80;;;;;;5032814;28;20385;-89
2022/04/21 11:47:05;;;;;;;;;;;18.70;90.20;;;;;;5039315;28;19971;-88
2022/04/21 11:49:34;;;;;;;;;;;16.90;90.40;;;;;;5026513;28;19975;-91
2022/04/21 11:52:01;;;;;;;;;;;16.90;90.10;;;;;;5029856;28;19925;-89
2022/04/21 11:54:27;;;;;;;;;;;16.90;90.70;;;;;;5015665;28;19928;-89
2022/04/21 11:56:56;;;;;;;;;;;17.30;91.50;;;;;;5002581;28;19984;-86
2022/04/21 11:59:34;;;;;;;;;;;17.40;90.30;;;;;;5034892;28;19929;-89
2022/04/21 12:07:34;;;;;;;;;;;17.10;90.20;;;;;;5031778;28;20298;-87
2022/04/21 12:10:01;;;;;;;;;;;17.20;90.10;;;;;;5027654;28;20224;-87
2022/04/21 12:12:33;;;;;;;;;;;17.00;90.20;;;;;;5027904;28;19941;-87
2022/04/21 12:15:00;;;;;;;;;;;16.80;90.30;;;;;;5001841;28;19975;-87
